Time;durP1;ratioP1;P1;durP2;ratioP2;P2;SDS_P1;SDS_P2;PMS_P1;PMS_P2;Temp;Humidity;BMP_temperature;BMP_pressure;BME280_temperature;BME280_humidity;BME280_pressure;Samples;Min_cycle;Max_cycle;Signal;HPM_P1;HPM_P2
2021/08/02 00:00:53;;;;;;;4.03;2.85;;;;;;;21.65;54.90;95166.28;4973542;28;20053;-74
2021/08/02 00:03:35;;;;;;;2.40;2.20;;;;;;;21.57;54.94;95170.06;4967440;28;20046;-74
2021/08/02 00:06:02;;;;;;;5.13;2.20;;;;;;;21.56;54.87;95173.94;4971794;28;20390;-73
2021/08/02 00:08:28;;;;;;;3.28;2.60;;;;;;;21.54;54.90;95165.38;4971590;28;20042;-73
2021/08/02 00:10:58;;;;;;;2.92;2.47;;;;;;;21.69;54.97;95169.00;4971937;28;20031;-73
2021/08/02 00:13:31;;;;;;;3.47;2.53;;;;;;;21.74;55.16;95164.00;4970682;28;20042;-72
2021/08/02 00:16:00;;;;;;;1.98;1.83;;;;;;;21.87;55.17;95169.94;4971784;28;20030;-72
2021/08/02 00:18:27;;;;;;;2.88;2.30;;;;;;;21.96;54.39;95167.69;4969161;28;20029;-73
2021/08/02 00:20:53;;;;;;;4.88;2.45;;;;;;;22.01;54.66;95166.56;4971617;28;20049;-74
2021/08/02 00:23:20;;;;;;;2.30;2.20;;;;;;;22.13;54.66;95170.91;4971690;28;20516;-73
2021/08/02 00:25:45;;;;;;;2.25;2.10;;;;;;;22.11;54.01;95167.78;4971261;28;20047;-73
2021/08/02 00:28:12;;;;;;;2.47;2.10;;;;;;;22.18;54.31;95170.56;4971339;28;20042;-73
2021/08/02 00:30:37;;;;;;;2.47;2.03;;;;;;;22.13;54.63;95163.56;4973466;28;20067;-74
2021/08/02 00:33:03;;;;;;;3.28;2.00;;;;;;;22.14;54.45;95169.75;4967861;28;20097;-73
2021/08/02 00:35:33;;;;;;;6.15;2.28;;;;;;;21.96;53.04;95166.91;4971187;28;20500;-73
2021/08/02 00:37:59;;;;;;;2.10;1.92;;;;;;;21.79;54.23;95158.25;4970431;28;20528;-73
2021/08/02 00:40:39;;;;;;;2.58;2.38;;;;;;;20.93;51.57;95174.78;4971496;28;20063;-74
2021/08/02 00:43:35;;;;;;;2.83;2.00;;;;;;;20.83;53.87;95167.31;4971525;28;20103;-74
2021/08/02 00:46:01;;;;;;;2.95;2.13;;;;;;;19.63;54.60;95170.66;4971096;28;20117;-74
2021/08/02 00:48:28;;;;;;;4.07;2.40;;;;;;;19.39;55.55;95159.03;4969876;28;20026;-74
2021/08/02 00:50:58;;;;;;;4.25;2.25;;;;;;;19.57;55.39;95161.28;4969966;28;20043;-74
2021/08/02 00:53:27;;;;;;;3.60;2.78;;;;;;;20.18;56.22;95163.00;4971158;28;20042;-74
2021/08/02 00:55:58;;;;;;;2.97;2.78;;;;;;;20.50;55.50;95164.25;4970590;28;20480;-74
2021/08/02 00:58:25;;;;;;;3.10;2.30;;;;;;;20.47;55.41;95159.59;4969699;28;20488;-74
2021/08/02 01:00:52;;;;;;;2.83;2.63;;;;;;;20.74;55.26;95162.22;4972876;28;20030;-74
2021/08/02 01:03:17;;;;;;;4.20;3.08;;;;;;;20.86;55.32;95161.97;4968636;28;20051;-74
2021/08/02 01:05:47;;;;;;;3.83;3.30;;;;;;;20.63;54.31;95169.44;4970678;28;20376;-74
2021/08/02 01:08:32;;;;;;;5.60;3.40;;;;;;;20.85;54.73;95159.66;4971085;28;20180;-73
2021/08/02 01:11:03;;;;;;;3.70;3.40;;;;;;;20.06;54.78;95165.91;4970985;28;20525;-74
2021/08/02 01:13:33;;;;;;;3.92;2.80;;;;;;;20.13;55.18;95166.81;4971066;28;20374;-73
2021/08/02 01:16:01;;;;;;;3.20;2.85;;;;;;;19.05;56.36;95179.63;4970600;28;20444;-75
2021/08/02 01:18:29;;;;;;;6.13;3.03;;;;;;;19.76;56.53;95165.84;4970628;28;20477;-73
2021/08/02 01:21:01;;;;;;;2.95;2.75;;;;;;;19.58;55.82;95168.22;4970882;28;20774;-75
2021/08/02 01:23:27;;;;;;;3.05;2.78;;;;;;;19.77;54.95;95168.19;4971065;28;20118;-74
2021/08/02 01:25:54;;;;;;;3.65;3.22;;;;;;;19.97;55.94;95164.25;4970546;28;20042;-74
2021/08/02 01:28:19;;;;;;;5.65;3.15;;;;;;;20.12;54.62;95162.56;4970651;28;20070;-74
2021/08/02 01:30:51;;;;;;;6.43;3.55;;;;;;;20.69;55.41;95166.03;4972513;28;20057;-73
2021/08/02 01:33:20;;;;;;;3.97;2.80;;;;;;;20.78;54.83;95168.47;4968917;28;20047;-76
2021/08/02 01:35:46;;;;;;;5.05;3.83;;;;;;;20.75;54.92;95172.66;4970092;28;20051;-73
2021/08/02 01:38:13;;;;;;;4.82;3.50;;;;;;;20.73;55.67;95172.25;4970508;28;20208;-73
2021/08/02 01:40:38;;;;;;;4.32;3.20;;;;;;;20.81;54.23;95170.41;4970498;28;20031;-72
2021/08/02 01:43:06;;;;;;;4.00;3.63;;;;;;;21.00;54.95;95180.28;4969297;28;20037;-73
2021/08/02 01:45:57;;;;;;;3.10;2.70;;;;;;;20.78;54.41;95176.56;4972309;28;20397;-73
2021/08/02 01:48:26;;;;;;;4.95;2.67;;;;;;;21.19;52.62;95182.81;4968812;28;20374;-73
2021/08/02 01:51:14;;;;;;;3.70;3.40;;;;;;;21.65;54.86;95176.31;4970316;28;20042;-73
2021/08/02 01:53:54;;;;;;;3.10;2.90;;;;;;;21.82;54.49;95183.03;4970305;28;20121;-75
2021/08/02 01:56:51;;;;;;;3.55;3.25;;;;;;;22.29;54.64;95184.94;4970076;28;20035;-73
2021/08/02 01:59:19;;;;;;;6.40;2.92;;;;;;;22.56;54.18;95186.25;4970430;28;20517;-74
2021/08/02 02:01:53;;;;;;;3.50;3.20;;;;;;;22.64;54.21;95187.06;4970456;28;20090;-73
2021/08/02 02:04:22;;;;;;;4.45;2.90;;;;;;;22.71;54.05;95195.22;4961970;28;20045;-73
2021/08/02 02:06:52;;;;;;;3.70;2.50;;;;;;;22.79;53.85;95194.13;4970683;28;20114;-74
2021/08/02 02:09:19;;;;;;;4.53;2.90;;;;;;;22.82;53.74;95198.78;4970636;28;20039;-73
2021/08/02 02:11:47;;;;;;;3.13;2.75;;;;;;;22.83;53.93;95194.16;4970496;28;20042;-74
2021/08/02 02:14:14;;;;;;;6.82;2.80;;;;;;;22.89;53.65;95189.16;4970385;28;20031;-74
2021/08/02 02:16:45;;;;;;;4.95;2.97;;;;;;;22.97;53.55;95193.44;4969989;28;20077;-73
2021/08/02 02:19:11;;;;;;;3.20;3.00;;;;;;;22.68;52.80;95195.25;4962281;28;20030;-73
2021/08/02 02:21:39;;;;;;;2.85;2.65;;;;;;;22.80;53.36;95198.38;4972120;28;20027;-73
2021/08/02 02:24:05;;;;;;;3.58;3.28;;;;;;;22.90;53.64;95202.34;4970322;28;20090;-74
2021/08/02 02:26:33;;;;;;;3.10;2.83;;;;;;;22.93;53.44;95189.94;4970093;28;20452;-74
2021/08/02 02:29:05;;;;;;;5.25;2.80;;;;;;;22.93;53.16;95193.44;4969239;28;20411;-73
2021/08/02 02:31:34;;;;;;;3.25;2.70;;;;;;;22.84;53.64;95193.75;4968805;28;20397;-73
2021/08/02 02:34:01;;;;;;;3.92;3.03;;;;;;;22.79;53.54;95185.22;4962831;28;20749;-73
2021/08/02 02:36:29;;;;;;;2.92;2.72;;;;;;;22.68;53.22;95178.97;4971556;28;20049;-74
2021/08/02 02:38:55;;;;;;;3.15;2.92;;;;;;;22.66;53.45;95194.81;4968584;28;20039;-73
2021/08/02 02:41:23;;;;;;;3.28;3.00;;;;;;;22.65;53.60;95188.63;4969422;28;20039;-74
2021/08/02 02:43:49;;;;;;;3.70;2.72;;;;;;;22.52;53.46;95192.81;4968960;28;20081;-73
2021/08/02 02:46:20;;;;;;;4.07;3.30;;;;;;;22.43;53.21;95198.59;4969448;28;20038;-73
2021/08/02 02:48:47;;;;;;;4.45;3.45;;;;;;;22.40;53.59;95195.84;4964869;28;20031;-74
2021/08/02 02:51:13;;;;;;;3.33;3.03;;;;;;;22.22;53.87;95198.47;4969623;28;20085;-74
2021/08/02 02:53:40;;;;;;;5.13;3.05;;;;;;;22.21;54.19;95200.34;4969764;28;20043;-73
2021/08/02 02:56:08;;;;;;;4.90;3.35;;;;;;;22.22;54.02;95196.53;4969655;28;20027;-73
2021/08/02 02:58:35;;;;;;;3.65;3.38;;;;;;;22.30;54.07;95192.69;4970037;28;20034;-74
2021/08/02 03:01:02;;;;;;;4.10;2.90;;;;;;;22.31;53.90;95196.16;4972472;28;20052;-73
2021/08/02 03:03:31;;;;;;;3.90;2.85;;;;;;;22.39;54.03;95202.44;4969008;28;20498;-74
2021/08/02 03:05:56;;;;;;;5.43;2.97;;;;;;;22.37;53.74;95200.09;4972842;28;20042;-73
2021/08/02 03:08:23;;;;;;;5.25;3.20;;;;;;;22.36;53.20;95203.94;4973386;28;20038;-73
2021/08/02 03:10:51;;;;;;;3.40;3.08;;;;;;;22.38;53.72;95206.31;4973316;28;20047;-74
2021/08/02 03:13:16;;;;;;;4.32;2.72;;;;;;;22.28;53.38;95200.44;4973306;28;20119;-74
2021/08/02 03:15:42;;;;;;;5.05;4.57;;;;;;;22.31;54.02;95193.47;4974736;28;20030;-73
2021/08/02 03:18:08;;;;;;;4.07;3.78;;;;;;;22.28;53.83;95195.00;4967859;28;20067;-74
2021/08/02 03:20:33;;;;;;;5.78;3.58;;;;;;;22.37;53.56;95208.22;4972703;28;20027;-74
2021/08/02 03:23:10;;;;;;;3.33;3.13;;;;;;;22.49;53.37;95199.00;4973240;28;20575;-73
2021/08/02 03:25:50;;;;;;;5.00;3.30;;;;;;;22.39;53.21;95203.19;4973157;28;20069;-73
2021/08/02 03:28:31;;;;;;;5.20;3.58;;;;;;;22.54;53.38;95195.94;4973108;28;20038;-73
2021/08/02 03:31:00;;;;;;;5.03;3.50;;;;;;;22.64;53.29;95195.22;4973222;28;20054;-73
2021/08/02 03:33:33;;;;;;;6.15;4.70;;;;;;;22.71;53.51;95197.16;4969685;28;20027;-74
2021/08/02 03:36:03;;;;;;;4.25;3.72;;;;;;;22.68;52.42;95195.25;4972346;28;20093;-73
2021/08/02 03:38:30;;;;;;;4.47;4.13;;;;;;;22.71;51.90;95197.16;4971670;28;20043;-73
2021/08/02 03:40:57;;;;;;;4.55;4.15;;;;;;;22.07;48.40;95202.97;4973053;28;20051;-74
2021/08/02 03:43:23;;;;;;;4.50;4.10;;;;;;;22.27;52.70;95200.81;4972725;28;20035;-73
2021/08/02 03:45:50;;;;;;;9.55;4.63;;;;;;;22.30;52.71;95210.88;4972831;28;20034;-74
2021/08/02 03:48:19;;;;;;;5.10;4.35;;;;;;;22.49;53.21;95204.44;4968012;28;20560;-75
2021/08/02 03:50:46;;;;;;;4.07;3.78;;;;;;;22.47;53.03;95214.84;4972760;28;20047;-74
2021/08/02 03:53:12;;;;;;;4.22;3.92;;;;;;;22.33;53.18;95217.50;4972763;28;20035;-76
2021/08/02 03:55:37;;;;;;;6.65;4.43;;;;;;;22.15;53.14;95225.47;4972379;28;20027;-74
2021/08/02 03:58:05;;;;;;;6.22;4.15;;;;;;;22.13;53.32;95230.50;4972348;28;20026;-74
2021/08/02 04:00:31;;;;;;;5.30;4.80;;;;;;;22.15;53.80;95237.09;4974847;28;20154;-73
2021/08/02 04:02:56;;;;;;;5.43;4.93;;;;;;;22.14;53.61;95238.25;4970211;28;20499;-74
2021/08/02 04:05:22;;;;;;;5.03;4.32;;;;;;;22.07;53.75;95249.00;4970743;28;20126;-74
2021/08/02 04:07:47;;;;;;;4.85;4.40;;;;;;;22.00;53.59;95249.72;4971588;28;20133;-74
2021/08/02 04:10:13;;;;;;;5.10;4.63;;;;;;;22.02;53.34;95252.06;4971996;28;20725;-75
2021/08/02 04:12:39;;;;;;;4.13;3.80;;;;;;;21.96;53.42;95264.41;4972652;28;20038;-73
2021/08/02 04:15:07;;;;;;;5.00;4.60;;;;;;;22.01;53.62;95272.97;4971107;28;20043;-74
2021/08/02 04:17:32;;;;;;;8.13;4.18;;;;;;;22.08;53.63;95261.41;4971971;28;20035;-74
2021/08/02 04:19:57;;;;;;;4.53;3.92;;;;;;;22.14;53.63;95267.28;4968542;28;20035;-74
2021/08/02 04:22:23;;;;;;;3.78;3.47;;;;;;;22.16;53.98;95273.09;4972216;28;20115;-77
2021/08/02 04:24:48;;;;;;;4.45;3.60;;;;;;;22.17;53.70;95288.22;4974055;28;20085;-74
2021/08/02 04:27:14;;;;;;;6.10;4.55;;;;;;;22.26;53.43;95275.88;4971616;28;20047;-74
2021/08/02 04:29:39;;;;;;;4.05;3.65;;;;;;;22.33;53.46;95285.25;4971831;28;20408;-74
2021/08/02 04:32:05;;;;;;;4.65;3.80;;;;;;;22.47;53.64;95282.59;4972038;28;20043;-77
2021/08/02 04:34:30;;;;;;;4.00;3.60;;;;;;;22.56;53.28;95288.50;4969995;28;20089;-74
2021/08/02 04:36:55;;;;;;;3.80;3.50;;;;;;;22.70;53.11;95287.81;4971753;28;20034;-74
2021/08/02 04:39:21;;;;;;;3.97;3.50;;;;;;;22.88;52.68;95294.16;4973666;28;20031;-75
2021/08/02 04:41:46;;;;;;;6.45;4.07;;;;;;;23.06;52.62;95283.38;4971899;28;20039;-74
2021/08/02 04:44:11;;;;;;;5.55;3.85;;;;;;;23.20;51.95;95277.25;4971958;28;20449;-74
2021/08/02 04:46:37;;;;;;;6.03;4.30;;;;;;;23.26;51.65;95278.44;4970145;28;20058;-75
2021/08/02 04:49:02;;;;;;;4.28;3.92;;;;;;;23.33;51.14;95283.88;4969597;28;20026;-75
2021/08/02 04:51:28;;;;;;;5.45;4.05;;;;;;;23.33;51.78;95279.22;4973603;28;20052;-75
2021/08/02 04:53:53;;;;;;;5.25;4.00;;;;;;;23.29;51.50;95285.84;4970259;28;20047;-74
2021/08/02 04:56:18;;;;;;;5.85;4.47;;;;;;;23.31;51.82;95280.78;4971077;28;20038;-76
2021/08/02 04:58:44;;;;;;;5.50;4.00;;;;;;;23.37;51.93;95270.34;4971625;28;20046;-74
2021/08/02 05:01:09;;;;;;;6.03;4.15;;;;;;;23.50;51.54;95280.47;4971486;28;20027;-75
2021/08/02 05:03:34;;;;;;;4.20;3.88;;;;;;;23.81;51.74;95284.44;4971579;28;20031;-74
2021/08/02 05:06:00;;;;;;;3.92;3.53;;;;;;;23.99;51.43;95281.75;4970917;28;20485;-75
2021/08/02 05:08:25;;;;;;;5.05;3.35;;;;;;;24.26;51.40;95265.88;4971179;28;20564;-74
2021/08/02 05:10:51;;;;;;;5.72;3.30;;;;;;;24.48;51.32;95277.53;4971357;28;20053;-75
2021/08/02 05:13:17;;;;;;;4.28;3.55;;;;;;;24.85;50.14;95273.56;4971348;28;20147;-76
2021/08/02 05:15:42;;;;;;;3.88;3.47;;;;;;;25.34;49.62;95271.91;4971603;28;20027;-75
2021/08/02 05:18:08;;;;;;;5.30;3.92;;;;;;;25.12;49.75;95271.94;4970227;28;20043;-74
2021/08/02 05:20:33;;;;;;;6.13;4.10;;;;;;;24.26;47.70;95271.28;4970865;28;20042;-75
2021/08/02 05:22:58;;;;;;;13.73;4.82;;;;;;;24.22;48.19;95275.19;4970609;28;20528;-74
2021/08/02 05:25:24;;;;;;;8.15;5.03;;;;;;;24.26;48.73;95275.94;4969746;28;20401;-79
2021/08/02 05:27:51;;;;;;;8.98;4.45;;;;;;;22.69;46.31;95280.84;4972885;28;20054;-73
2021/08/02 05:30:17;;;;;;;6.13;4.22;;;;;;;22.57;49.70;95276.47;4970903;28;20114;-74
2021/08/02 05:32:43;;;;;;;5.72;3.60;;;;;;;22.54;46.71;95272.59;4970680;28;20081;-76
2021/08/02 05:35:10;;;;;;;4.00;3.58;;;;;;;22.55;48.19;95273.38;4981483;28;20458;-75
2021/08/02 05:37:36;;;;;;;3.90;3.60;;;;;;;22.61;49.01;95271.09;4966511;28;20051;-75
2021/08/02 05:40:02;;;;;;;3.72;3.35;;;;;;;22.82;46.19;95276.63;4969474;28;20022;-73
2021/08/02 05:42:28;;;;;;;3.40;3.10;;;;;;;23.55;49.26;95271.19;4972691;28;20034;-75
2021/08/02 05:44:54;;;;;;;3.92;2.85;;;;;;;23.35;46.31;95276.16;4971429;28;20031;-79
2021/08/02 05:47:20;;;;;;;4.13;3.80;;;;;;;24.08;49.24;95262.34;4970902;28;20041;-81
2021/08/02 05:49:45;;;;;;;4.38;3.15;;;;;;;24.49;48.61;95272.84;4966248;28;20133;-72
2021/08/02 05:52:10;;;;;;;3.40;3.10;;;;;;;23.80;44.58;95274.75;4989384;28;20443;-71
2021/08/02 05:54:36;;;;;;;8.23;2.95;;;;;;;23.23;45.74;95277.25;4991413;28;20465;-74
2021/08/02 05:57:02;;;;;;;4.43;3.20;;;;;;;22.87;48.15;95289.06;4989139;28;20034;-71
2021/08/02 05:59:27;;;;;;;3.20;2.90;;;;;;;21.68;48.09;95292.75;4989612;28;20034;-72
2021/08/02 06:01:53;;;;;;;3.88;3.33;;;;;;;22.29;46.58;95296.81;4989331;28;20408;-72
2021/08/02 06:04:18;;;;;;;3.85;3.42;;;;;;;21.01;50.16;95296.19;4973030;28;20067;-72
2021/08/02 06:06:43;;;;;;;4.07;3.55;;;;;;;21.10;50.23;95303.25;4971441;28;20041;-71
2021/08/02 06:09:11;;;;;;;3.42;3.13;;;;;;;22.58;47.28;95300.53;4968994;28;20170;-73
2021/08/02 06:11:37;;;;;;;3.88;3.38;;;;;;;23.15;47.04;95302.81;4968702;28;20515;-72
2021/08/02 06:14:06;;;;;;;3.88;3.05;;;;;;;23.78;48.88;95306.94;4969854;28;20520;-73
2021/08/02 06:16:32;;;;;;;4.05;3.55;;;;;;;23.89;47.31;95304.25;4969355;28;20513;-73
2021/08/02 06:18:57;;;;;;;4.32;3.63;;;;;;;24.08;44.68;95316.69;4964149;28;20034;-73
2021/08/02 06:21:22;;;;;;;4.97;3.55;;;;;;;23.11;45.60;95310.16;4968537;28;20026;-73
2021/08/02 06:23:48;;;;;;;3.45;3.15;;;;;;;23.70;48.68;95313.53;4970010;28;20043;-75
2021/08/02 06:26:13;;;;;;;4.00;3.60;;;;;;;24.46;47.72;95306.25;4969496;28;20039;-73
2021/08/02 06:28:38;;;;;;;3.83;3.20;;;;;;;24.95;47.69;95316.31;4970082;28;20122;-73
2021/08/02 06:31:04;;;;;;;3.63;3.33;;;;;;;24.16;43.60;95321.00;4968592;28;20030;-73
2021/08/02 06:33:29;;;;;;;4.25;3.50;;;;;;;24.46;44.76;95317.91;4969759;28;20038;-73
2021/08/02 06:35:55;;;;;;;3.95;3.22;;;;;;;25.14;46.86;95320.56;4966896;28;20050;-83
2021/08/02 06:38:20;;;;;;;6.30;3.15;;;;;;;22.40;45.97;95328.66;4972253;28;20159;-73
2021/08/02 06:40:46;;;;;;;4.57;3.30;;;;;;;24.41;44.14;95312.84;4973531;28;20045;-70
2021/08/02 06:43:12;;;;;;;2.83;2.60;;;;;;;24.05;45.60;95317.47;4974510;28;20043;-79
2021/08/02 06:45:39;;;;;;;3.50;2.83;;;;;;;24.83;42.07;95322.16;4975218;28;20669;-74
2021/08/02 06:48:04;;;;;;;3.55;3.17;;;;;;;25.83;43.48;95314.47;4972237;28;20117;-72
2021/08/02 06:50:30;;;;;;;4.32;2.45;;;;;;;26.12;38.86;95314.28;4965872;28;20126;-70
2021/08/02 06:52:55;;;;;;;4.85;2.63;;;;;;;23.51;43.76;95324.69;4971922;28;20151;-70
2021/08/02 06:55:20;;;;;;;2.38;2.20;;;;;;;22.66;45.85;95328.44;4973215;28;20453;-69
2021/08/02 06:57:46;;;;;;;2.45;2.20;;;;;;;22.03;46.70;95337.59;4974713;28;20034;-71
2021/08/02 07:00:12;;;;;;;4.68;2.40;;;;;;;22.36;46.17;95335.97;4973253;28;20496;-72
2021/08/02 07:02:37;;;;;;;3.15;2.38;;;;;;;23.03;45.49;95332.97;4973338;28;20536;-76
2021/08/02 07:05:03;;;;;;;2.95;2.17;;;;;;;24.03;43.32;95336.88;4967732;28;20047;-71
2021/08/02 07:07:28;;;;;;;2.92;2.20;;;;;;;24.70;45.53;95331.88;4989776;28;20046;-73
2021/08/02 07:09:53;;;;;;;3.08;2.53;;;;;;;24.13;43.12;95333.41;4991563;28;20030;-67
2021/08/02 07:12:19;;;;;;;6.05;2.53;;;;;;;23.83;43.30;95339.16;4995327;28;20022;-75
2021/08/02 07:14:44;;;;;;;3.35;2.40;;;;;;;23.96;42.92;95341.53;4993223;28;20039;-78
2021/08/02 07:17:09;;;;;;;3.45;2.90;;;;;;;23.17;44.17;95345.84;4993456;28;20050;-83
2021/08/02 07:19:35;;;;;;;2.92;2.33;;;;;;;22.92;44.68;95345.69;4980195;28;20067;-74
2021/08/02 07:22:01;;;;;;;2.60;2.40;;;;;;;22.70;45.65;95337.41;4971918;28;20031;-73
2021/08/02 07:24:26;;;;;;;2.70;2.50;;;;;;;22.93;44.97;95339.91;4975109;28;20077;-70
2021/08/02 07:26:52;;;;;;;2.50;2.30;;;;;;;22.93;44.44;95334.50;4972650;28;20507;-72
2021/08/02 07:29:17;;;;;;;3.40;2.85;;;;;;;22.16;46.41;95347.03;4971595;28;20066;-74
2021/08/02 07:31:42;;;;;;;2.55;2.35;;;;;;;22.66;45.51;95335.81;4972906;28;20038;-74
2021/08/02 07:34:08;;;;;;;2.80;2.53;;;;;;;23.31;44.24;95332.34;4967417;28;20477;-71
2021/08/02 07:36:33;;;;;;;2.75;2.55;;;;;;;22.02;46.96;95342.22;4974268;28;20011;-71
2021/08/02 07:38:59;;;;;;;2.75;2.55;;;;;;;22.27;45.64;95331.66;4971691;28;20062;-72
2021/08/02 07:41:26;;;;;;;3.97;2.85;;;;;;;22.81;45.57;95338.25;4971825;28;20065;-73
2021/08/02 07:43:51;;;;;;;2.30;2.10;;;;;;;22.66;46.23;95346.66;4972996;28;20500;-73
2021/08/02 07:46:16;;;;;;;2.85;2.55;;;;;;;22.89;44.51;95325.56;4971954;28;20047;-73
2021/08/02 07:48:42;;;;;;;2.53;2.33;;;;;;;22.92;44.63;95337.56;4973215;28;20106;-74
2021/08/02 07:51:07;;;;;;;4.32;2.55;;;;;;;22.14;45.78;95333.06;4972256;28;20047;-74
2021/08/02 07:53:34;;;;;;;2.50;2.30;;;;;;;22.89;44.76;95335.63;4972474;28;20046;-74
2021/08/02 07:56:00;;;;;;;2.65;2.40;;;;;;;23.35;44.48;95325.78;4972015;28;20034;-75
2021/08/02 07:58:25;;;;;;;2.85;2.50;;;;;;;23.14;43.99;95327.63;4972409;28;20053;-71
2021/08/02 08:00:50;;;;;;;2.15;1.95;;;;;;;24.10;42.33;95323.28;4974218;28;20034;-72
2021/08/02 08:03:17;;;;;;;2.83;2.58;;;;;;;22.76;44.10;95330.47;4972138;28;20043;-75
2021/08/02 08:05:43;;;;;;;2.53;2.33;;;;;;;23.04;44.24;95335.31;4979486;28;20082;-73
2021/08/02 08:08:08;;;;;;;2.60;2.35;;;;;;;23.04;45.19;95340.75;4991442;28;20072;-74
2021/08/02 08:10:33;;;;;;;3.15;2.17;;;;;;;24.10;44.55;95325.22;4990377;28;20031;-71
2021/08/02 08:12:59;;;;;;;4.07;2.80;;;;;;;23.46;43.37;95322.34;4991344;28;20373;-77
2021/08/02 08:15:25;;;;;;;4.45;2.92;;;;;;;23.07;44.98;95336.50;4993620;28;20026;-75
2021/08/02 08:17:52;;;;;;;2.80;2.50;;;;;;;24.35;42.23;95328.78;4991036;28;20046;-73
2021/08/02 08:20:20;;;;;;;2.50;2.30;;;;;;;24.88;40.73;95328.00;4975641;28;20092;-74
2021/08/02 08:22:47;;;;;;;2.60;2.40;;;;;;;24.46;41.59;95341.59;4980317;28;20050;-74
2021/08/02 08:25:13;;;;;;;3.58;2.35;;;;;;;25.12;40.75;95328.34;4971914;28;20117;-73
2021/08/02 08:27:38;;;;;;;3.00;2.30;;;;;;;25.59;40.34;95335.19;4973154;28;20066;-74
2021/08/02 08:30:05;;;;;;;3.40;2.53;;;;;;;25.93;38.38;95340.88;4986491;28;20157;-74
2021/08/02 08:32:31;;;;;;;3.38;3.00;;;;;;;26.17;41.67;95333.72;4971439;28;20085;-74
2021/08/02 08:34:56;;;;;;;3.25;2.60;;;;;;;26.16;38.45;95340.38;4968249;28;20039;-73
2021/08/02 08:37:22;;;;;;;2.97;2.65;;;;;;;26.72;39.72;95345.81;4971180;28;20397;-73
2021/08/02 08:39:47;;;;;;;3.88;2.83;;;;;;;27.13;36.31;95342.34;4973527;28;20031;-74
2021/08/02 08:42:14;;;;;;;3.00;2.80;;;;;;;27.64;36.52;95324.97;4970390;28;20034;-73
2021/08/02 08:44:41;;;;;;;2.95;2.67;;;;;;;28.21;37.10;95326.19;4971646;28;20146;-73
2021/08/02 08:47:06;;;;;;;4.00;2.65;;;;;;;26.15;38.32;95344.25;4970982;28;20069;-73
2021/08/02 08:49:32;;;;;;;2.95;2.75;;;;;;;25.40;39.43;95341.88;4969680;28;20126;-73
2021/08/02 08:51:58;;;;;;;2.83;2.53;;;;;;;24.33;41.33;95341.19;4971031;28;20102;-72
2021/08/02 08:54:23;;;;;;;3.35;2.60;;;;;;;26.11;39.04;95326.38;4973182;28;20022;-74
2021/08/02 08:56:49;;;;;;;3.15;2.28;;;;;;;26.35;39.61;95332.81;4970571;28;20042;-73
2021/08/02 08:59:16;;;;;;;2.72;2.50;;;;;;;25.63;39.64;95322.31;4970750;28;20047;-72
2021/08/02 09:01:41;;;;;;;3.10;2.80;;;;;;;24.70;41.25;95338.09;4971197;28;20046;-72
2021/08/02 09:04:07;;;;;;;3.15;2.58;;;;;;;23.51;43.88;95340.97;4968957;28;20030;-72
2021/08/02 09:06:49;;;;;;;3.30;3.10;;;;;;;25.44;40.84;95332.91;4972216;28;20030;-72
2021/08/02 09:09:28;;;;;;;3.20;2.97;;;;;;;25.81;42.35;95330.44;4970713;28;20396;-73
2021/08/02 09:12:18;;;;;;;3.13;2.85;;;;;;;25.02;40.96;95343.50;4969291;28;20040;-70
2021/08/02 09:14:54;;;;;;;4.82;2.63;;;;;;;23.55;43.58;95339.06;4971102;28;20035;-72
2021/08/02 09:17:34;;;;;;;3.78;3.17;;;;;;;26.00;42.09;95312.03;4970764;28;20513;-73
2021/08/02 09:20:17;;;;;;;2.75;2.47;;;;;;;24.58;41.97;95338.50;4970528;28;20043;-74
2021/08/02 09:22:43;;;;;;;3.28;2.97;;;;;;;23.95;41.82;95337.25;4962914;28;20065;-71
2021/08/02 09:25:12;;;;;;;2.90;2.70;;;;;;;24.20;42.46;95331.84;4970993;28;20058;-69
2021/08/02 09:27:39;;;;;;;3.75;2.70;;;;;;;24.90;41.41;95341.97;4972393;28;20481;-73
2021/08/02 09:30:30;;;;;;;2.70;2.50;;;;;;;24.10;43.23;95342.31;4970887;28;20039;-70
2021/08/02 09:33:03;;;;;;;2.95;2.75;;;;;;;24.16;44.09;95337.31;4969749;28;20043;-70
2021/08/02 09:35:34;;;;;;;2.72;2.53;;;;;;;24.74;41.56;95338.09;4962466;28;20043;-66
2021/08/02 09:38:01;;;;;;;;;;;;;;;26.72;44.02;95329.44;4969587;28;20046;-69
2021/08/02 09:40:28;;;;;;;3.13;2.80;;;;;;;27.85;39.14;95325.91;4970557;28;19984;-71
2021/08/02 09:42:54;;;;;;;4.43;3.08;;;;;;;26.37;37.47;95325.03;4968952;28;20508;-71
2021/08/02 09:45:20;;;;;;;3.35;2.50;;;;;;;27.70;40.82;95312.44;4971921;28;20110;-70
2021/08/02 09:47:52;;;;;;;4.20;2.97;;;;;;;26.52;37.43;95333.91;4969511;28;20142;-71
2021/08/02 09:50:28;;;;;;;3.08;2.70;;;;;;;26.53;39.22;95333.50;4962489;28;20122;-70
2021/08/02 09:52:54;;;;;;;2.65;2.40;;;;;;;28.20;36.01;95321.88;4976520;28;20058;-70
2021/08/02 09:55:21;;;;;;;3.20;2.47;;;;;;;26.04;38.54;95337.31;4970084;28;20034;-70
2021/08/02 09:57:50;;;;;;;2.45;2.25;;;;;;;25.21;41.82;95323.25;4971487;28;20019;-69
2021/08/02 10:00:16;;;;;;;3.83;2.90;;;;;;;25.80;40.58;95323.44;4970150;28;20034;-71
2021/08/02 10:02:42;;;;;;;3.53;2.90;;;;;;;25.08;42.30;95324.84;4968682;28;20098;-70
2021/08/02 10:05:09;;;;;;;5.65;2.92;;;;;;;24.58;41.17;95324.91;4963098;28;20054;-70
2021/08/02 10:07:35;;;;;;;3.45;3.00;;;;;;;25.64;39.76;95333.97;4968136;28;20030;-70
2021/08/02 10:10:01;;;;;;;3.28;2.80;;;;;;;26.28;42.37;95327.44;4968349;28;20050;-70
2021/08/02 10:12:37;;;;;;;9.43;2.78;;;;;;;26.06;39.43;95326.81;4971504;28;20035;-71
2021/08/02 10:15:03;;;;;;;3.50;2.80;;;;;;;26.47;37.33;95342.53;4969862;28;20035;-70
2021/08/02 10:17:29;;;;;;;3.20;3.00;;;;;;;26.12;38.69;95325.97;4967777;28;20039;-69
2021/08/02 10:19:55;;;;;;;3.35;2.97;;;;;;;26.17;38.75;95327.50;4963881;28;20066;-71
2021/08/02 10:22:20;;;;;;;2.97;2.65;;;;;;;27.20;38.55;95323.13;4967701;28;20035;-70
2021/08/02 10:24:46;;;;;;;2.60;2.40;;;;;;;26.62;37.21;95314.72;4971898;28;20397;-70
2021/08/02 10:27:12;;;;;;;2.72;2.50;;;;;;;26.30;38.61;95312.19;4967891;28;20053;-70
2021/08/02 10:29:41;;;;;;;2.63;2.42;;;;;;;26.88;37.01;95326.94;4969938;28;20077;-69
2021/08/02 10:32:20;;;;;;;3.03;2.75;;;;;;;25.34;38.97;95326.34;4969816;28;20054;-70
2021/08/02 10:34:50;;;;;;;2.42;2.05;;;;;;;25.05;39.38;95331.84;4966732;28;20042;-70
2021/08/02 10:37:37;;;;;;;2.72;2.53;;;;;;;26.34;39.00;95315.69;4966496;28;20117;-70
2021/08/02 10:40:10;;;;;;;2.72;2.38;;;;;;;27.27;36.17;95314.84;4969355;28;20551;-70
2021/08/02 10:42:51;;;;;;;3.05;2.38;;;;;;;27.08;36.07;95313.53;4971370;28;20031;-70
2021/08/02 10:45:30;;;;;;;2.80;2.60;;;;;;;27.15;35.62;95313.44;4969329;28;20046;-71
2021/08/02 10:47:56;;;;;;;3.47;2.95;;;;;;;28.18;35.44;95307.84;4969044;28;20577;-70
2021/08/02 10:50:30;;;;;;;2.65;2.42;;;;;;;29.82;36.47;95301.41;4963996;28;20034;-70
2021/08/02 10:52:56;;;;;;;3.85;2.33;;;;;;;28.47;33.39;95308.22;4969282;28;20094;-70
2021/08/02 10:55:25;;;;;;;2.50;2.30;;;;;;;27.68;35.55;95311.25;4968113;28;20035;-70
2021/08/02 10:58:00;;;;;;;2.00;1.80;;;;;;;25.15;37.01;95313.97;4971015;28;20086;-70
2021/08/02 11:00:27;;;;;;;2.00;1.48;;;;;;;25.85;34.23;95311.34;4969635;28;20043;-70
2021/08/02 11:02:57;;;;;;;1.10;1.00;;;;;;;24.79;34.79;95314.00;4967900;28;20047;-70
2021/08/02 11:05:30;;;;;;;2.00;1.10;;;;;;;25.86;33.89;95307.44;4963245;28;20046;-70
2021/08/02 11:08:02;;;;;;;1.02;1.02;;;;;;;26.67;33.13;95302.59;4968801;28;20035;-70
2021/08/02 11:10:28;;;;;;;1.10;1.10;;;;;;;27.36;32.69;95287.84;4969344;28;20053;-70
2021/08/02 11:12:55;;;;;;;1.50;1.13;;;;;;;25.60;35.89;95301.34;4969125;28;20119;-70
2021/08/02 11:15:20;;;;;;;2.00;1.40;;;;;;;25.21;38.03;95309.66;4971163;28;20026;-70
2021/08/02 11:17:50;;;;;;;1.88;1.70;;;;;;;25.87;36.79;95285.25;4968724;28;20041;-70
2021/08/02 11:20:17;;;;;;;3.00;2.58;;;;;;;25.64;37.18;95293.13;4964591;28;20049;-70
2021/08/02 11:22:50;;;;;;;3.80;2.10;;;;;;;26.39;36.84;95295.38;4972194;28;20133;-70
2021/08/02 11:25:37;;;;;;;2.05;1.85;;;;;;;26.76;35.92;95294.69;4972505;28;20055;-70
2021/08/02 11:28:03;;;;;;;4.28;2.40;;;;;;;27.86;35.01;95280.97;4972431;28;20027;-70
2021/08/02 11:30:29;;;;;;;4.78;2.33;;;;;;;27.20;35.18;95293.88;4974651;28;20539;-70
2021/08/02 11:32:56;;;;;;;4.80;2.58;;;;;;;27.71;35.05;95280.41;4972604;28;20141;-70
2021/08/02 11:35:31;;;;;;;5.53;2.10;;;;;;;27.13;35.75;95285.00;4970517;28;20042;-70
2021/08/02 11:37:56;;;;;;;3.88;2.20;;;;;;;26.66;36.50;95287.38;4971956;28;20038;-70